Orland, Indiana
Current Conditions -  °F | °C
As of 11:35 AM on Monday 24 Nov 2014 (Local Time) from KANQ Reporting Station
Overcast Overcast  
Wind Chill: 38°   Ceiling: 1100
Heat Index: 46°   Visibility: 10mi
Dew Point: 37°   Wind: 28mph
Humidity: 71%   Direction: 230°SW
Pressure: 29.17"   Gusts: 40mph
Location:  41.73°N, 85.17°W
Report Text: KANQ 241635Z AUTO 23024G35KT 10SM BKN011 OVC015 08/03 A2917 RMK
Loading
Personal Weather Stations






























Interactive Weather Map New forecast layout! Learn more

10-Day Weather Forecast

Advertisements
Track Severe Weather on mobile